sensor_id;sensor_type;location;lat;lon;timestamp;pressure;altitude;pressure_sealevel;temperature;humidity
75536;BME280;64119;52.070;20.804;2023-06-24T00:01:32;100470.88;;;18.69;71.61
75536;BME280;64119;52.070;20.804;2023-06-24T00:04:01;100474.77;;;18.65;72.42
75536;BME280;64119;52.070;20.804;2023-06-24T00:06:29;100481.55;;;18.63;71.58
75536;BME280;64119;52.070;20.804;2023-06-24T00:08:57;100484.86;;;18.59;72.38
75536;BME280;64119;52.070;20.804;2023-06-24T00:11:29;100485.06;;;18.53;72.91
75536;BME280;64119;52.070;20.804;2023-06-24T00:13:57;100485.64;;;18.50;72.86
75536;BME280;64119;52.070;20.804;2023-06-24T00:16:25;100486.13;;;18.44;73.30
75536;BME280;64119;52.070;20.804;2023-06-24T00:18:56;100483.24;;;18.40;73.07
75536;BME280;64119;52.070;20.804;2023-06-24T00:21:26;100479.35;;;18.37;73.51
75536;BME280;64119;52.070;20.804;2023-06-24T00:23:57;100476.25;;;18.35;72.72
75536;BME280;64119;52.070;20.804;2023-06-24T00:26:25;100470.98;;;18.32;73.28
75536;BME280;64119;52.070;20.804;2023-06-24T00:28:53;100473.36;;;18.30;73.07
75536;BME280;64119;52.070;20.804;2023-06-24T00:31:22;100474.89;;;18.28;73.35
75536;BME280;64119;52.070;20.804;2023-06-24T00:33:50;100480.97;;;18.26;73.13
75536;BME280;64119;52.070;20.804;2023-06-24T00:36:20;100483.98;;;18.24;73.70
75536;BME280;64119;52.070;20.804;2023-06-24T00:38:49;100484.73;;;18.24;72.96
75536;BME280;64119;52.070;20.804;2023-06-24T00:41:17;100489.98;;;18.24;72.80
75536;BME280;64119;52.070;20.804;2023-06-24T00:43:48;100497.60;;;18.23;73.32
75536;BME280;64119;52.070;20.804;2023-06-24T00:46:16;100500.00;;;18.23;73.83
75536;BME280;64119;52.070;20.804;2023-06-24T00:48:43;100502.20;;;18.22;74.28
75536;BME280;64119;52.070;20.804;2023-06-24T00:51:11;100504.39;;;18.22;73.47
75536;BME280;64119;52.070;20.804;2023-06-24T00:53:39;100503.44;;;18.22;74.19
75536;BME280;64119;52.070;20.804;2023-06-24T00:56:07;100509.05;;;18.21;74.66
75536;BME280;64119;52.070;20.804;2023-06-24T00:58:36;100513.52;;;18.17;75.53
75536;BME280;64119;52.070;20.804;2023-06-24T01:01:06;100517.63;;;18.16;75.91
75536;BME280;64119;52.070;20.804;2023-06-24T01:03:36;100516.37;;;18.15;75.45
75536;BME280;64119;52.070;20.804;2023-06-24T01:06:04;100519.92;;;18.15;74.64
75536;BME280;64119;52.070;20.804;2023-06-24T01:08:32;100525.34;;;18.15;74.83
75536;BME280;64119;52.070;20.804;2023-06-24T01:11:01;100521.81;;;18.14;75.21
75536;BME280;64119;52.070;20.804;2023-06-24T01:13:29;100521.63;;;18.12;75.20
75536;BME280;64119;52.070;20.804;2023-06-24T01:16:00;100518.93;;;18.10;75.44
75536;BME280;64119;52.070;20.804;2023-06-24T01:18:55;100521.73;;;18.08;75.59
75536;BME280;64119;52.070;20.804;2023-06-24T01:21:38;100526.58;;;18.06;75.13
75536;BME280;64119;52.070;20.804;2023-06-24T01:24:29;100525.10;;;18.03;76.26
75536;BME280;64119;52.070;20.804;2023-06-24T01:35:02;100530.89;;;17.93;76.95
75536;BME280;64119;52.070;20.804;2023-06-24T01:37:44;100526.64;;;17.90;77.70
75536;BME280;64119;52.070;20.804;2023-06-24T01:40:22;100519.85;;;17.89;77.52
75536;BME280;64119;52.070;20.804;2023-06-24T01:42:50;100515.56;;;17.87;76.56
75536;BME280;64119;52.070;20.804;2023-06-24T01:45:28;100514.27;;;17.89;76.18
75536;BME280;64119;52.070;20.804;2023-06-24T01:48:06;100521.94;;;17.89;76.53
75536;BME280;64119;52.070;20.804;2023-06-24T01:50:35;100525.66;;;17.87;77.44
75536;BME280;64119;52.070;20.804;2023-06-24T01:53:06;100525.39;;;17.86;76.45
75536;BME280;64119;52.070;20.804;2023-06-24T01:55:36;100523.97;;;17.84;76.58
75536;BME280;64119;52.070;20.804;2023-06-24T01:58:07;100526.06;;;17.82;77.05
75536;BME280;64119;52.070;20.804;2023-06-24T02:00:36;100530.68;;;17.80;76.59
75536;BME280;64119;52.070;20.804;2023-06-24T02:03:05;100538.00;;;17.81;77.02
75536;BME280;64119;52.070;20.804;2023-06-24T02:05:35;100545.61;;;17.80;76.03
75536;BME280;64119;52.070;20.804;2023-06-24T02:08:05;100544.80;;;17.78;77.83
75536;BME280;64119;52.070;20.804;2023-06-24T02:10:38;100549.24;;;17.76;77.60
75536;BME280;64119;52.070;20.804;2023-06-24T02:13:09;100550.78;;;17.75;77.23
75536;BME280;64119;52.070;20.804;2023-06-24T02:15:39;100551.75;;;17.76;77.17
75536;BME280;64119;52.070;20.804;2023-06-24T02:18:08;100552.39;;;17.75;77.34
75536;BME280;64119;52.070;20.804;2023-06-24T02:20:37;100554.30;;;17.72;77.86
75536;BME280;64119;52.070;20.804;2023-06-24T02:23:08;100553.73;;;17.72;77.00
75536;BME280;64119;52.070;20.804;2023-06-24T02:25:37;100556.66;;;17.72;77.15
75536;BME280;64119;52.070;20.804;2023-06-24T02:28:09;100556.21;;;17.71;77.58
75536;BME280;64119;52.070;20.804;2023-06-24T02:30:38;100557.52;;;17.70;77.57
75536;BME280;64119;52.070;20.804;2023-06-24T02:33:06;100562.56;;;17.70;76.98
75536;BME280;64119;52.070;20.804;2023-06-24T02:35:34;100561.06;;;17.70;77.68
75536;BME280;64119;52.070;20.804;2023-06-24T02:38:02;100565.98;;;17.69;77.66
75536;BME280;64119;52.070;20.804;2023-06-24T02:40:30;100566.63;;;17.70;77.38
75536;BME280;64119;52.070;20.804;2023-06-24T02:42:59;100570.21;;;17.71;77.18
75536;BME280;64119;52.070;20.804;2023-06-24T02:45:28;100574.00;;;17.72;77.11
75536;BME280;64119;52.070;20.804;2023-06-24T02:47:56;100579.13;;;17.73;76.69
75536;BME280;64119;52.070;20.804;2023-06-24T02:50:25;100584.50;;;17.73;77.35
75536;BME280;64119;52.070;20.804;2023-06-24T02:52:53;100590.43;;;17.72;77.83
75536;BME280;64119;52.070;20.804;2023-06-24T02:55:25;100586.60;;;17.71;77.62
75536;BME280;64119;52.070;20.804;2023-06-24T02:57:59;100590.45;;;17.73;78.11
75536;BME280;64119;52.070;20.804;2023-06-24T03:00:28;100596.55;;;17.74;78.03
75536;BME280;64119;52.070;20.804;2023-06-24T03:03:10;100602.33;;;17.74;78.06
75536;BME280;64119;52.070;20.804;2023-06-24T03:05:53;100603.26;;;17.75;78.91
75536;BME280;64119;52.070;20.804;2023-06-24T03:08:24;100597.75;;;17.73;78.43
75536;BME280;64119;52.070;20.804;2023-06-24T03:10:55;100600.17;;;17.74;79.03
75536;BME280;64119;52.070;20.804;2023-06-24T03:13:29;100602.56;;;17.75;78.47
75536;BME280;64119;52.070;20.804;2023-06-24T03:16:01;100601.47;;;17.76;78.26
75536;BME280;64119;52.070;20.804;2023-06-24T03:18:31;100607.20;;;17.76;78.73
75536;BME280;64119;52.070;20.804;2023-06-24T03:20:59;100606.82;;;17.77;78.31
75536;BME280;64119;52.070;20.804;2023-06-24T03:23:29;100606.80;;;17.78;79.51
75536;BME280;64119;52.070;20.804;2023-06-24T03:25:58;100604.27;;;17.80;78.58
75536;BME280;64119;52.070;20.804;2023-06-24T03:28:26;100607.27;;;17.82;78.41
75536;BME280;64119;52.070;20.804;2023-06-24T03:31:02;100605.90;;;17.86;78.97
75536;BME280;64119;52.070;20.804;2023-06-24T03:33:30;100610.39;;;17.87;78.83
75536;BME280;64119;52.070;20.804;2023-06-24T03:35:59;100612.42;;;17.89;78.48
75536;BME280;64119;52.070;20.804;2023-06-24T03:38:30;100613.70;;;17.92;78.21
75536;BME280;64119;52.070;20.804;2023-06-24T03:40:59;100612.30;;;17.94;78.07
75536;BME280;64119;52.070;20.804;2023-06-24T03:43:28;100617.80;;;17.95;78.48
75536;BME280;64119;52.070;20.804;2023-06-24T03:45:56;100624.89;;;17.97;78.20
75536;BME280;64119;52.070;20.804;2023-06-24T03:48:24;100619.55;;;18.01;77.76
75536;BME280;64119;52.070;20.804;2023-06-24T03:50:52;100618.48;;;18.05;77.95
75536;BME280;64119;52.070;20.804;2023-06-24T03:53:21;100618.52;;;18.09;78.57
75536;BME280;64119;52.070;20.804;2023-06-24T03:55:50;100620.69;;;18.12;78.79
75536;BME280;64119;52.070;20.804;2023-06-24T03:58:18;100617.89;;;18.16;78.38
75536;BME280;64119;52.070;20.804;2023-06-24T04:00:49;100618.14;;;18.24;77.59
75536;BME280;64119;52.070;20.804;2023-06-24T04:03:17;100624.78;;;18.34;77.73
75536;BME280;64119;52.070;20.804;2023-06-24T04:05:46;100622.52;;;18.43;77.43
75536;BME280;64119;52.070;20.804;2023-06-24T04:08:18;100619.64;;;18.51;77.49
75536;BME280;64119;52.070;20.804;2023-06-24T04:10:46;100624.20;;;18.59;77.31
75536;BME280;64119;52.070;20.804;2023-06-24T04:13:16;100621.38;;;18.65;76.66
75536;BME280;64119;52.070;20.804;2023-06-24T04:15:44;100616.90;;;18.68;76.65
75536;BME280;64119;52.070;20.804;2023-06-24T04:18:12;100617.23;;;18.71;76.62
75536;BME280;64119;52.070;20.804;2023-06-24T04:20:40;100614.64;;;18.71;76.17
75536;BME280;64119;52.070;20.804;2023-06-24T04:23:08;100615.08;;;18.71;76.04
75536;BME280;64119;52.070;20.804;2023-06-24T04:25:37;100617.73;;;18.70;76.22
75536;BME280;64119;52.070;20.804;2023-06-24T04:28:06;100614.23;;;18.69;76.00
75536;BME280;64119;52.070;20.804;2023-06-24T04:30:35;100616.11;;;18.71;76.36
75536;BME280;64119;52.070;20.804;2023-06-24T04:33:09;100612.48;;;18.75;76.80
75536;BME280;64119;52.070;20.804;2023-06-24T04:35:38;100614.38;;;18.82;76.47
75536;BME280;64119;52.070;20.804;2023-06-24T04:38:07;100614.73;;;18.87;76.43
75536;BME280;64119;52.070;20.804;2023-06-24T04:40:39;100615.67;;;18.91;76.59
75536;BME280;64119;52.070;20.804;2023-06-24T04:43:09;100623.46;;;18.97;76.09
75536;BME280;64119;52.070;20.804;2023-06-24T04:45:36;100620.27;;;18.99;75.86
75536;BME280;64119;52.070;20.804;2023-06-24T04:48:05;100621.34;;;19.02;75.84
75536;BME280;64119;52.070;20.804;2023-06-24T04:50:33;100620.64;;;19.04;76.05
75536;BME280;64119;52.070;20.804;2023-06-24T04:53:01;100623.08;;;19.08;76.66
75536;BME280;64119;52.070;20.804;2023-06-24T04:55:29;100621.35;;;19.15;75.73
75536;BME280;64119;52.070;20.804;2023-06-24T04:58:00;100621.90;;;19.21;76.57
75536;BME280;64119;52.070;20.804;2023-06-24T05:00:28;100627.38;;;19.29;76.71
75536;BME280;64119;52.070;20.804;2023-06-24T05:02:56;100631.13;;;19.38;75.50
75536;BME280;64119;52.070;20.804;2023-06-24T05:05:25;100628.55;;;19.43;75.49
75536;BME280;64119;52.070;20.804;2023-06-24T05:07:53;100634.58;;;19.45;75.29
75536;BME280;64119;52.070;20.804;2023-06-24T05:10:21;100641.84;;;19.51;75.74
75536;BME280;64119;52.070;20.804;2023-06-24T05:12:48;100646.54;;;19.59;75.46
75536;BME280;64119;52.070;20.804;2023-06-24T05:15:18;100648.27;;;19.63;74.66
75536;BME280;64119;52.070;20.804;2023-06-24T05:17:46;100655.29;;;19.70;74.55
75536;BME280;64119;52.070;20.804;2023-06-24T05:20:14;100660.64;;;19.73;74.36
75536;BME280;64119;52.070;20.804;2023-06-24T05:22:42;100656.92;;;19.76;74.22
75536;BME280;64119;52.070;20.804;2023-06-24T05:25:10;100658.40;;;19.80;73.91
75536;BME280;64119;52.070;20.804;2023-06-24T05:27:38;100663.90;;;19.87;73.85
75536;BME280;64119;52.070;20.804;2023-06-24T05:30:06;100673.70;;;19.93;74.55
75536;BME280;64119;52.070;20.804;2023-06-24T05:32:34;100681.33;;;20.00;74.48
75536;BME280;64119;52.070;20.804;2023-06-24T05:35:02;100684.06;;;20.09;73.78
75536;BME280;64119;52.070;20.804;2023-06-24T05:37:29;100684.16;;;20.17;74.13
75536;BME280;64119;52.070;20.804;2023-06-24T05:39:58;100688.40;;;20.27;74.49
75536;BME280;64119;52.070;20.804;2023-06-24T05:42:29;100688.88;;;20.34;72.93
75536;BME280;64119;52.070;20.804;2023-06-24T05:44:59;100689.20;;;20.39;73.38
75536;BME280;64119;52.070;20.804;2023-06-24T05:47:27;100688.35;;;20.44;73.29
75536;BME280;64119;52.070;20.804;2023-06-24T05:49:54;100686.45;;;20.52;72.78
75536;BME280;64119;52.070;20.804;2023-06-24T05:52:23;100687.52;;;20.61;72.16
75536;BME280;64119;52.070;20.804;2023-06-24T05:54:51;100686.70;;;20.68;71.97
75536;BME280;64119;52.070;20.804;2023-06-24T05:57:19;100687.08;;;20.76;71.35
75536;BME280;64119;52.070;20.804;2023-06-24T05:59:47;100689.63;;;20.83;71.51
75536;BME280;64119;52.070;20.804;2023-06-24T06:02:14;100694.40;;;20.89;70.40
75536;BME280;64119;52.070;20.804;2023-06-24T06:04:43;100697.23;;;20.95;70.75
75536;BME280;64119;52.070;20.804;2023-06-24T06:07:11;100696.71;;;21.06;70.64
75536;BME280;64119;52.070;20.804;2023-06-24T06:09:39;100698.95;;;21.14;70.37
75536;BME280;64119;52.070;20.804;2023-06-24T06:12:07;100698.59;;;21.20;69.29
75536;BME280;64119;52.070;20.804;2023-06-24T06:14:37;100696.73;;;21.22;69.33
75536;BME280;64119;52.070;20.804;2023-06-24T06:17:05;100692.97;;;21.25;69.09
75536;BME280;64119;52.070;20.804;2023-06-24T06:19:33;100694.29;;;21.30;70.04
75536;BME280;64119;52.070;20.804;2023-06-24T06:22:00;100694.79;;;21.30;68.92
75536;BME280;64119;52.070;20.804;2023-06-24T06:24:29;100692.27;;;21.35;69.44
75536;BME280;64119;52.070;20.804;2023-06-24T06:26:57;100694.83;;;21.45;69.90
75536;BME280;64119;52.070;20.804;2023-06-24T06:29:25;100692.83;;;21.50;69.14
75536;BME280;64119;52.070;20.804;2023-06-24T06:31:53;100695.44;;;21.52;68.41
75536;BME280;64119;52.070;20.804;2023-06-24T06:34:23;100694.76;;;21.63;68.44
75536;BME280;64119;52.070;20.804;2023-06-24T06:36:50;100700.78;;;21.79;68.74
75536;BME280;64119;52.070;20.804;2023-06-24T06:39:18;100698.31;;;21.89;67.18
75536;BME280;64119;52.070;20.804;2023-06-24T06:41:46;100701.52;;;21.94;68.57
75536;BME280;64119;52.070;20.804;2023-06-24T06:44:16;100701.48;;;22.02;69.25
75536;BME280;64119;52.070;20.804;2023-06-24T06:46:43;100702.65;;;22.12;67.55
75536;BME280;64119;52.070;20.804;2023-06-24T06:49:12;100704.55;;;22.18;67.43
75536;BME280;64119;52.070;20.804;2023-06-24T06:51:40;100701.72;;;22.22;66.82
75536;BME280;64119;52.070;20.804;2023-06-24T06:54:08;100703.18;;;22.28;67.19
75536;BME280;64119;52.070;20.804;2023-06-24T06:56:35;100703.73;;;22.33;66.38
75536;BME280;64119;52.070;20.804;2023-06-24T06:59:03;100707.16;;;22.32;65.66
75536;BME280;64119;52.070;20.804;2023-06-24T07:01:31;100705.80;;;22.36;66.21
75536;BME280;64119;52.070;20.804;2023-06-24T07:04:01;100707.09;;;22.43;66.63
75536;BME280;64119;52.070;20.804;2023-06-24T07:06:29;100705.66;;;22.51;66.21
75536;BME280;64119;52.070;20.804;2023-06-24T07:09:01;100705.55;;;22.46;64.63
75536;BME280;64119;52.070;20.804;2023-06-24T07:11:28;100710.21;;;22.40;65.37
75536;BME280;64119;52.070;20.804;2023-06-24T07:13:57;100710.55;;;22.43;65.73
75536;BME280;64119;52.070;20.804;2023-06-24T07:16:24;100707.65;;;22.49;65.73
75536;BME280;64119;52.070;20.804;2023-06-24T07:18:52;100707.97;;;22.56;65.97
75536;BME280;64119;52.070;20.804;2023-06-24T07:21:20;100707.42;;;22.56;64.17
75536;BME280;64119;52.070;20.804;2023-06-24T07:23:48;100711.66;;;22.52;64.24
75536;BME280;64119;52.070;20.804;2023-06-24T07:26:16;100711.89;;;22.47;63.30
75536;BME280;64119;52.070;20.804;2023-06-24T07:28:44;100710.54;;;22.47;63.74
75536;BME280;64119;52.070;20.804;2023-06-24T07:31:27;100706.12;;;22.48;64.49
75536;BME280;64119;52.070;20.804;2023-06-24T07:33:54;100700.17;;;22.61;65.45
75536;BME280;64119;52.070;20.804;2023-06-24T07:36:23;100692.91;;;22.79;64.88
75536;BME280;64119;52.070;20.804;2023-06-24T07:38:50;100697.83;;;22.93;64.34
75536;BME280;64119;52.070;20.804;2023-06-24T07:41:18;100696.09;;;23.03;62.78
75536;BME280;64119;52.070;20.804;2023-06-24T07:43:46;100694.86;;;23.07;62.75
75536;BME280;64119;52.070;20.804;2023-06-24T07:46:15;100698.33;;;23.16;61.53
75536;BME280;64119;52.070;20.804;2023-06-24T07:48:43;100700.08;;;23.30;62.00
75536;BME280;64119;52.070;20.804;2023-06-24T07:51:10;100704.81;;;23.39;60.34
75536;BME280;64119;52.070;20.804;2023-06-24T07:53:38;100706.78;;;23.44;60.18
75536;BME280;64119;52.070;20.804;2023-06-24T07:56:06;100708.72;;;23.54;61.80
75536;BME280;64119;52.070;20.804;2023-06-24T07:58:34;100707.86;;;23.69;61.00
75536;BME280;64119;52.070;20.804;2023-06-24T08:01:05;100707.56;;;23.84;60.56
75536;BME280;64119;52.070;20.804;2023-06-24T08:03:34;100715.94;;;23.93;59.72
75536;BME280;64119;52.070;20.804;2023-06-24T08:06:04;100717.05;;;23.84;58.40
75536;BME280;64119;52.070;20.804;2023-06-24T08:08:32;100718.25;;;23.88;60.39
75536;BME280;64119;52.070;20.804;2023-06-24T08:11:00;100721.80;;;23.91;59.37
75536;BME280;64119;52.070;20.804;2023-06-24T08:13:28;100718.98;;;23.92;58.48
75536;BME280;64119;52.070;20.804;2023-06-24T08:15:55;100719.84;;;23.94;58.87
75536;BME280;64119;52.070;20.804;2023-06-24T08:18:23;100720.35;;;23.99;58.95
75536;BME280;64119;52.070;20.804;2023-06-24T08:20:51;100723.47;;;24.08;58.87
75536;BME280;64119;52.070;20.804;2023-06-24T08:23:19;100722.31;;;24.19;58.23
75536;BME280;64119;52.070;20.804;2023-06-24T08:25:46;100725.14;;;24.23;57.39
75536;BME280;64119;52.070;20.804;2023-06-24T08:28:14;100724.05;;;24.26;56.41
75536;BME280;64119;52.070;20.804;2023-06-24T08:30:42;100731.21;;;24.30;57.76
75536;BME280;64119;52.070;20.804;2023-06-24T08:33:11;100729.01;;;24.36;55.06
75536;BME280;64119;52.070;20.804;2023-06-24T08:35:41;100734.87;;;24.48;55.86
75536;BME280;64119;52.070;20.804;2023-06-24T08:38:09;100738.78;;;24.56;55.63
75536;BME280;64119;52.070;20.804;2023-06-24T08:40:38;100735.36;;;24.63;54.21
75536;BME280;64119;52.070;20.804;2023-06-24T08:43:07;100735.89;;;24.71;55.59
75536;BME280;64119;52.070;20.804;2023-06-24T08:45:35;100739.40;;;24.80;55.19
75536;BME280;64119;52.070;20.804;2023-06-24T08:48:04;100740.52;;;24.94;54.39
75536;BME280;64119;52.070;20.804;2023-06-24T08:50:40;100736.27;;;25.06;53.11
75536;BME280;64119;52.070;20.804;2023-06-24T08:53:12;100735.27;;;25.15;53.87
75536;BME280;64119;52.070;20.804;2023-06-24T08:55:44;100735.42;;;25.20;53.24
75536;BME280;64119;52.070;20.804;2023-06-24T08:58:13;100740.79;;;25.20;52.19
75536;BME280;64119;52.070;20.804;2023-06-24T09:00:42;100741.40;;;25.20;51.42
75536;BME280;64119;52.070;20.804;2023-06-24T09:03:10;100739.65;;;25.21;52.54
75536;BME280;64119;52.070;20.804;2023-06-24T09:05:39;100742.72;;;25.15;52.44
75536;BME280;64119;52.070;20.804;2023-06-24T09:08:06;100747.55;;;25.07;51.59
75536;BME280;64119;52.070;20.804;2023-06-24T09:10:36;100751.10;;;25.02;50.39
75536;BME280;64119;52.070;20.804;2023-06-24T09:13:06;100745.67;;;24.96;51.45
75536;BME280;64119;52.070;20.804;2023-06-24T09:15:36;100751.17;;;24.92;51.67
75536;BME280;64119;52.070;20.804;2023-06-24T09:18:05;100749.22;;;24.84;51.96
75536;BME280;64119;52.070;20.804;2023-06-24T09:20:33;100752.42;;;24.78;50.91
75536;BME280;64119;52.070;20.804;2023-06-24T09:23:07;100750.94;;;24.64;50.14
75536;BME280;64119;52.070;20.804;2023-06-24T09:25:35;100751.15;;;24.53;50.14
75536;BME280;64119;52.070;20.804;2023-06-24T09:28:04;100746.09;;;24.46;50.06
75536;BME280;64119;52.070;20.804;2023-06-24T09:30:32;100745.93;;;24.49;50.90
75536;BME280;64119;52.070;20.804;2023-06-24T09:32:59;100746.21;;;24.53;51.18
75536;BME280;64119;52.070;20.804;2023-06-24T09:35:27;100745.89;;;24.53;50.65
75536;BME280;64119;52.070;20.804;2023-06-24T09:37:56;100749.69;;;24.58;51.47
75536;BME280;64119;52.070;20.804;2023-06-24T09:40:25;100749.09;;;24.66;51.10
75536;BME280;64119;52.070;20.804;2023-06-24T09:42:56;100743.82;;;24.64;49.89
75536;BME280;64119;52.070;20.804;2023-06-24T09:45:26;100745.98;;;24.60;51.04
75536;BME280;64119;52.070;20.804;2023-06-24T09:47:55;100750.66;;;24.60;51.24
75536;BME280;64119;52.070;20.804;2023-06-24T09:50:24;100750.66;;;24.61;52.08
75536;BME280;64119;52.070;20.804;2023-06-24T09:52:52;100752.23;;;24.67;51.30
75536;BME280;64119;52.070;20.804;2023-06-24T09:55:22;100754.02;;;24.65;51.06
75536;BME280;64119;52.070;20.804;2023-06-24T09:57:53;100747.56;;;24.58;50.30
75536;BME280;64119;52.070;20.804;2023-06-24T10:00:21;100748.38;;;24.51;49.99
75536;BME280;64119;52.070;20.804;2023-06-24T10:02:53;100748.59;;;24.54;49.89
75536;BME280;64119;52.070;20.804;2023-06-24T10:05:23;100746.48;;;24.40;49.49
75536;BME280;64119;52.070;20.804;2023-06-24T10:07:53;100748.36;;;24.33;50.05
75536;BME280;64119;52.070;20.804;2023-06-24T10:10:21;100755.95;;;24.28;50.47
75536;BME280;64119;52.070;20.804;2023-06-24T10:12:49;100757.61;;;24.18;50.36
75536;BME280;64119;52.070;20.804;2023-06-24T10:15:22;100757.96;;;24.09;51.15
75536;BME280;64119;52.070;20.804;2023-06-24T10:17:50;100756.84;;;24.02;51.65
75536;BME280;64119;52.070;20.804;2023-06-24T10:20:27;100753.48;;;24.01;53.05
75536;BME280;64119;52.070;20.804;2023-06-24T10:22:55;100754.87;;;23.95;52.02
75536;BME280;64119;52.070;20.804;2023-06-24T10:25:35;100754.20;;;23.89;52.35
75536;BME280;64119;52.070;20.804;2023-06-24T10:28:03;100756.55;;;23.80;53.85
75536;BME280;64119;52.070;20.804;2023-06-24T10:30:31;100752.31;;;23.78;53.63
75536;BME280;64119;52.070;20.804;2023-06-24T10:33:01;100753.94;;;23.76;53.63
75536;BME280;64119;52.070;20.804;2023-06-24T10:35:29;100753.81;;;23.72;53.41
75536;BME280;64119;52.070;20.804;2023-06-24T10:38:02;100753.70;;;23.73;53.84
75536;BME280;64119;52.070;20.804;2023-06-24T10:40:42;100749.32;;;23.73;53.45
75536;BME280;64119;52.070;20.804;2023-06-24T10:43:28;100745.52;;;23.71;53.12
75536;BME280;64119;52.070;20.804;2023-06-24T10:45:58;100749.15;;;23.73;54.98
75536;BME280;64119;52.070;20.804;2023-06-24T10:48:27;100749.52;;;23.71;54.86
75536;BME280;64119;52.070;20.804;2023-06-24T10:50:54;100747.32;;;23.75;54.03
75536;BME280;64119;52.070;20.804;2023-06-24T10:53:22;100745.42;;;23.72;54.04
75536;BME280;64119;52.070;20.804;2023-06-24T10:55:50;100748.94;;;23.72;53.12
75536;BME280;64119;52.070;20.804;2023-06-24T10:58:18;100751.52;;;23.69;52.75
75536;BME280;64119;52.070;20.804;2023-06-24T11:00:46;100753.20;;;23.68;52.32
75536;BME280;64119;52.070;20.804;2023-06-24T11:03:16;100751.52;;;23.67;52.09
75536;BME280;64119;52.070;20.804;2023-06-24T11:05:45;100755.27;;;23.59;50.98
75536;BME280;64119;52.070;20.804;2023-06-24T11:08:13;100761.27;;;23.54;52.41
75536;BME280;64119;52.070;20.804;2023-06-24T11:10:46;100763.14;;;23.52;51.42
75536;BME280;64119;52.070;20.804;2023-06-24T11:13:20;100757.84;;;23.40;50.86
75536;BME280;64119;52.070;20.804;2023-06-24T11:15:47;100760.28;;;23.35;53.03
75536;BME280;64119;52.070;20.804;2023-06-24T11:18:15;100761.65;;;23.31;51.93
75536;BME280;64119;52.070;20.804;2023-06-24T11:20:43;100761.77;;;23.22;53.52
75536;BME280;64119;52.070;20.804;2023-06-24T11:23:12;100764.19;;;23.21;52.85
75536;BME280;64119;52.070;20.804;2023-06-24T11:25:42;100770.11;;;23.17;53.68
75536;BME280;64119;52.070;20.804;2023-06-24T11:28:17;100772.02;;;23.10;53.77
75536;BME280;64119;52.070;20.804;2023-06-24T11:30:49;100766.48;;;22.98;53.32
75536;BME280;64119;52.070;20.804;2023-06-24T11:33:28;100770.84;;;22.96;54.47
75536;BME280;64119;52.070;20.804;2023-06-24T11:35:56;100774.54;;;22.96;55.35
75536;BME280;64119;52.070;20.804;2023-06-24T11:38:23;100775.72;;;22.97;55.65
75536;BME280;64119;52.070;20.804;2023-06-24T11:40:57;100778.61;;;22.99;57.24
75536;BME280;64119;52.070;20.804;2023-06-24T11:43:25;100775.48;;;22.99;55.80
75536;BME280;64119;52.070;20.804;2023-06-24T11:45:56;100775.78;;;22.97;56.65
75536;BME280;64119;52.070;20.804;2023-06-24T11:48:28;100777.17;;;23.02;57.14
75536;BME280;64119;52.070;20.804;2023-06-24T11:51:12;100776.65;;;23.05;57.21
75536;BME280;64119;52.070;20.804;2023-06-24T11:53:42;100780.06;;;23.12;56.98
75536;BME280;64119;52.070;20.804;2023-06-24T11:56:13;100781.27;;;23.17;58.17
75536;BME280;64119;52.070;20.804;2023-06-24T11:58:42;100780.11;;;23.20;58.02
75536;BME280;64119;52.070;20.804;2023-06-24T12:01:11;100777.67;;;23.21;57.37
75536;BME280;64119;52.070;20.804;2023-06-24T12:03:41;100783.42;;;23.14;58.42
75536;BME280;64119;52.070;20.804;2023-06-24T12:06:09;100786.56;;;23.13;59.24
75536;BME280;64119;52.070;20.804;2023-06-24T12:08:36;100788.45;;;23.13;61.25
75536;BME280;64119;52.070;20.804;2023-06-24T12:11:19;100789.22;;;23.07;62.83
75536;BME280;64119;52.070;20.804;2023-06-24T12:13:48;100791.61;;;23.09;61.53
75536;BME280;64119;52.070;20.804;2023-06-24T12:16:16;100792.79;;;23.06;63.21
75536;BME280;64119;52.070;20.804;2023-06-24T12:18:44;100798.05;;;22.93;65.73
75536;BME280;64119;52.070;20.804;2023-06-24T12:21:11;100798.58;;;22.79;67.32
75536;BME280;64119;52.070;20.804;2023-06-24T12:23:39;100797.91;;;22.71;63.77
75536;BME280;64119;52.070;20.804;2023-06-24T12:26:07;100799.85;;;22.64;66.18
75536;BME280;64119;52.070;20.804;2023-06-24T12:28:34;100798.55;;;22.54;67.52
75536;BME280;64119;52.070;20.804;2023-06-24T12:31:03;100801.58;;;22.43;67.61
75536;BME280;64119;52.070;20.804;2023-06-24T12:33:31;100799.66;;;22.37;67.23
75536;BME280;64119;52.070;20.804;2023-06-24T12:35:59;100802.98;;;22.33;67.14
75536;BME280;64119;52.070;20.804;2023-06-24T12:38:27;100800.42;;;22.30;67.02
75536;BME280;64119;52.070;20.804;2023-06-24T12:40:59;100799.90;;;22.27;66.98
75536;BME280;64119;52.070;20.804;2023-06-24T12:43:26;100801.56;;;22.27;68.04
75536;BME280;64119;52.070;20.804;2023-06-24T12:45:54;100801.57;;;22.27;67.33
75536;BME280;64119;52.070;20.804;2023-06-24T12:48:23;100801.88;;;22.25;69.43
75536;BME280;64119;52.070;20.804;2023-06-24T12:50:51;100802.17;;;22.23;67.56
75536;BME280;64119;52.070;20.804;2023-06-24T12:53:21;100807.01;;;22.24;68.83
75536;BME280;64119;52.070;20.804;2023-06-24T12:55:51;100803.52;;;22.28;67.47
75536;BME280;64119;52.070;20.804;2023-06-24T12:58:22;100803.50;;;22.30;67.87
75536;BME280;64119;52.070;20.804;2023-06-24T13:00:50;100800.96;;;22.31;67.54